Flight Track Log - Related Links

Times and Time Zones

All times are in EDT time to prevent confusion due to time zone crossing. See the N49KC flight status page for this flight to view local times or setup timezone preferences in your user account.

Time Position Orientation Groundspeed Altitude Reporting Facility
EDT Latitude Longitude Course Direction KTS MPH feet Rate Location/Type
Sat 09:36:53 PM 44.9711 -93.0267 North 155 178 3,500  Level Minneapolis Center
Sat 09:37:55 PM 45.0172 -93.0194 North 167 192 5,100 1,463 Climbing Minneapolis Center
Sat 09:38:56 PM 45.0650 -93.0161 North 172 198 6,500 1,279 Climbing Minneapolis Center
Sat 09:39:57 PM 45.1025 -93.0144 North 171 197 7,700 1,328 Climbing Minneapolis Center
Sat 09:40:58 PM 45.1600 -93.0106 North 173 199 9,200 1,366 Climbing Minneapolis Center
Sat 09:41:00 PM 45.2501 -93.0250 North  Level FlightAware Approximate
Sat 09:42:00 PM 45.2097 -93.0086 North 179 206 10,500  Level Minneapolis Center
Sat 09:43:01 PM 45.2600 -93.0028 North 180 207 11,500 885 Climbing Minneapolis Center
Sat 09:44:02 PM 45.3147 -93.0028 360° North 195 224 12,300 689 Climbing Minneapolis Center
Sat 09:45:03 PM 45.3839 -92.9947 North 209 241 12,900 341 Climbing Minneapolis Center
Sat 09:46:05 PM 45.4492 -92.9903 North 232 267 13,000 49 Climbing Minneapolis Center
Sat 09:47:06 PM 45.5167 -92.9847 North 241 277 13,000 -49 Level Minneapolis Center
Sat 09:48:07 PM 45.5839 -92.9781 North 243 280 12,900 -49 Descending Minneapolis Center
Sat 09:49:08 PM 45.6525 -92.9728 North 247 284 12,900  Level Minneapolis Center
Sat 09:50:09 PM 45.7211 -92.9681 North 248 285 12,900  Level Minneapolis Center
Sat 09:51:11 PM 45.7875 -92.9628 North 241 277 12,900  Level Minneapolis Center
Sat 09:52:12 PM 45.8544 -92.9564 North 241 277 12,900  Level Minneapolis Center
Sat 09:53:13 PM 45.9211 -92.9533 North 241 277 12,900 49 Level Minneapolis Center
Sat 09:54:14 PM 45.9875 -92.9467 North 240 276 13,000 49 Climbing Minneapolis Center
Sat 09:55:15 PM 46.0661 -92.9381 North 239 275 13,000  Level Minneapolis Center
Sat 09:56:16 PM 46.1319 -92.9342 North 238 274 13,000  Level Minneapolis Center
Sat 09:57:18 PM 46.1964 -92.9250 North 236 272 13,000  Level Minneapolis Center
Sat 09:58:19 PM 46.2617 -92.9261 359° North 234 269 13,000  Level Minneapolis Center
Sat 09:59:20 PM 46.3261 -92.9200 North 233 268 13,000  Level Minneapolis Center
Sat 10:00:22 PM 46.3903 -92.9117 North 233 268 13,000  Level Minneapolis Center
Sat 10:01:23 PM 46.4536 -92.9092 North 230 265 13,000 -98 Level Minneapolis Center
Sat 10:02:24 PM 46.5181 -92.9044 North 232 267 12,800 -590 Descending Minneapolis Center
Sat 10:03:25 PM 46.5856 -92.8983 North 240 276 11,800 -934 Descending Minneapolis Center
Sat 10:04:26 PM 46.6567 -92.8925 North 253 291 10,900 -787 Descending Minneapolis Center
Sat 10:05:27 PM 46.7133 -92.8864 North 255 293 10,200 -1,220 Descending Minneapolis Center
Sat 10:06:29 PM 46.8142 -92.8761 North 261 300 8,400 -1,415 Descending Minneapolis Center
Sat 10:07:30 PM 46.8889 -92.8706 North 268 308 7,300 -1,082 Descending Minneapolis Center
Sat 10:08:31 PM 46.9594 -92.9014 343° North 269 310 6,200 -787 Descending Minneapolis Center
Sat 10:09:32 PM 47.0272 -92.9447 336° Northwest 269 310 5,700 -295 Descending Minneapolis Center
Sat 10:10:33 PM 47.0906 -92.9825 338° Northwest 260 299 5,600 -197 Descending Minneapolis Center
Sat 10:11:34 PM 47.1500 -93.0172 338° Northwest 247 284 5,300 -295 Descending Minneapolis Center
Sat 10:12:35 PM 47.2036 -93.0461 340° North 227 261 5,000 -341 Descending Minneapolis Center
Sat 10:13:37 PM 47.2628 -93.0606 351° North 220 253 4,600 -390 Descending Minneapolis Center
Sat 10:14:38 PM 47.3244 -93.0806 348° North 223 257 4,200 -295 Descending Minneapolis Center
Sat 10:15:39 PM 47.3956 -93.0983 350° North 223 257 4,000 -49 Descending Minneapolis Center
Sat 10:16:40 PM 47.4522 -93.1106 352° North 220 253 4,100  Climbing Minneapolis Center
Sat 10:17:41 PM 47.4983 -93.0572 38° Northeast 212 244 4,000 -98 Descending Minneapolis Center
Sat 10:18:42 PM 47.4858 -92.9961 107° East 192 221 3,900 -344 Descending Minneapolis Center
Sat 10:19:43 PM 47.4542 -92.9453 133° Southeast 177 204 3,300 -689 Descending Minneapolis Center
Sat 10:20:44 PM 47.4294 -92.9053 132° Southeast 151 174 2,500 -683 Descending Minneapolis Center
Sat 10:21:46 PM 47.4092 -92.8722 132° Southeast 122 140 1,900 -390 Descending Minneapolis Center
Sat 10:22:47 PM 47.3828 -92.8308 133° Southeast 119 137 1,700 -197 Descending Minneapolis Center

Login

Don't have an account? Register now (free) for customized features, flight alerts, and more!